sensor_id;sensor_type;location;lat;lon;timestamp;pressure;altitude;pressure_sealevel;temperature;humidity
62697;BME280;48761;42.680;23.312;2023-03-14T00:00:13;95027.69;;;5.29;47.20
62697;BME280;48761;42.680;23.312;2023-03-14T00:02:40;95053.94;;;5.12;48.91
62697;BME280;48761;42.680;23.312;2023-03-14T00:05:07;95039.78;;;4.94;49.51
62697;BME280;48761;42.680;23.312;2023-03-14T00:07:37;95035.97;;;4.80;48.39
62697;BME280;48761;42.680;23.312;2023-03-14T00:10:12;95041.41;;;4.35;47.97
62697;BME280;48761;42.680;23.312;2023-03-14T00:12:38;95001.28;;;4.09;48.86
62697;BME280;48761;42.680;23.312;2023-03-14T00:15:04;95029.16;;;4.13;48.73
62697;BME280;48761;42.680;23.312;2023-03-14T00:17:31;95022.91;;;4.58;47.83
62697;BME280;48761;42.680;23.312;2023-03-14T00:19:57;95014.53;;;4.69;49.33
62697;BME280;48761;42.680;23.312;2023-03-14T00:22:23;95015.66;;;5.03;49.06
62697;BME280;48761;42.680;23.312;2023-03-14T00:24:49;95007.34;;;5.13;48.27
62697;BME280;48761;42.680;23.312;2023-03-14T00:27:15;94987.53;;;5.23;48.25
62697;BME280;48761;42.680;23.312;2023-03-14T00:29:42;94991.78;;;5.26;48.95
62697;BME280;48761;42.680;23.312;2023-03-14T00:32:08;94988.66;;;5.37;49.40
62697;BME280;48761;42.680;23.312;2023-03-14T00:34:34;94994.91;;;5.54;49.15
62697;BME280;48761;42.680;23.312;2023-03-14T00:37:00;94994.50;;;5.63;49.26
62697;BME280;48761;42.680;23.312;2023-03-14T00:39:26;94976.94;;;5.62;49.08
62697;BME280;48761;42.680;23.312;2023-03-14T00:41:52;94986.81;;;5.58;48.67
62697;BME280;48761;42.680;23.312;2023-03-14T00:44:18;94970.81;;;5.61;49.15
62697;BME280;48761;42.680;23.312;2023-03-14T00:46:44;94993.53;;;5.83;49.09
62697;BME280;48761;42.680;23.312;2023-03-14T00:49:09;94982.25;;;5.80;49.12
62697;BME280;48761;42.680;23.312;2023-03-14T00:51:35;94992.16;;;5.75;49.09
62697;BME280;48761;42.680;23.312;2023-03-14T00:54:01;94993.16;;;5.72;49.29
62697;BME280;48761;42.680;23.312;2023-03-14T00:56:27;94979.94;;;5.74;49.51
62697;BME280;48761;42.680;23.312;2023-03-14T00:58:54;94985.63;;;5.64;49.69
62697;BME280;48761;42.680;23.312;2023-03-14T01:01:21;94979.31;;;5.86;49.06
62697;BME280;48761;42.680;23.312;2023-03-14T01:03:47;94964.09;;;5.74;49.42
62697;BME280;48761;42.680;23.312;2023-03-14T01:06:18;94977.91;;;5.79;49.61
62697;BME280;48761;42.680;23.312;2023-03-14T01:08:45;94947.00;;;5.63;49.80
62697;BME280;48761;42.680;23.312;2023-03-14T01:11:17;94951.09;;;5.69;49.36
62697;BME280;48761;42.680;23.312;2023-03-14T01:13:44;94979.94;;;5.74;49.73
62697;BME280;48761;42.680;23.312;2023-03-14T01:16:10;94969.19;;;5.77;49.52
62697;BME280;48761;42.680;23.312;2023-03-14T01:18:38;94966.34;;;5.81;49.78
62697;BME280;48761;42.680;23.312;2023-03-14T01:21:11;94959.66;;;5.74;49.69
62697;BME280;48761;42.680;23.312;2023-03-14T01:23:37;94957.09;;;5.72;49.82
62697;BME280;48761;42.680;23.312;2023-03-14T01:26:03;94961.28;;;5.77;50.01
62697;BME280;48761;42.680;23.312;2023-03-14T01:28:29;94950.28;;;5.68;49.95
62697;BME280;48761;42.680;23.312;2023-03-14T01:30:55;94955.84;;;5.62;50.08
62697;BME280;48761;42.680;23.312;2023-03-14T01:33:20;94950.28;;;5.68;50.11
62697;BME280;48761;42.680;23.312;2023-03-14T01:35:49;94948.66;;;5.66;50.04
62697;BME280;48761;42.680;23.312;2023-03-14T01:38:15;94936.47;;;5.63;50.12
62697;BME280;48761;42.680;23.312;2023-03-14T01:40:43;94939.88;;;5.65;50.15
62697;BME280;48761;42.680;23.312;2023-03-14T01:43:15;94940.72;;;5.66;50.18
62697;BME280;48761;42.680;23.312;2023-03-14T01:51:13;94931.47;;;5.57;50.30
62697;BME280;48761;42.680;23.312;2023-03-14T01:53:43;94934.84;;;5.41;50.69
62697;BME280;48761;42.680;23.312;2023-03-14T01:56:12;94933.47;;;5.52;50.59
62697;BME280;48761;42.680;23.312;2023-03-14T01:58:41;94929.97;;;5.51;50.42
62697;BME280;48761;42.680;23.312;2023-03-14T02:01:11;94919.44;;;5.51;50.53
62697;BME280;48761;42.680;23.312;2023-03-14T02:03:46;94911.06;;;5.43;50.78
62697;BME280;48761;42.680;23.312;2023-03-14T02:06:14;94927.44;;;5.49;50.78
62697;BME280;48761;42.680;23.312;2023-03-14T02:08:43;94931.00;;;5.48;50.72
62697;BME280;48761;42.680;23.312;2023-03-14T02:11:09;94928.38;;;5.48;51.10
62697;BME280;48761;42.680;23.312;2023-03-14T02:13:35;94910.13;;;5.44;50.97
62697;BME280;48761;42.680;23.312;2023-03-14T02:16:00;94881.94;;;5.26;50.87
62697;BME280;48761;42.680;23.312;2023-03-14T02:18:26;94910.84;;;5.47;50.53
62697;BME280;48761;42.680;23.312;2023-03-14T02:21:11;94916.41;;;5.41;50.93
62697;BME280;48761;42.680;23.312;2023-03-14T02:23:43;94923.53;;;5.39;50.99
62697;BME280;48761;42.680;23.312;2023-03-14T02:26:20;94882.69;;;5.11;51.02
62697;BME280;48761;42.680;23.312;2023-03-14T02:28:48;94915.88;;;5.15;51.08
62697;BME280;48761;42.680;23.312;2023-03-14T02:31:15;94913.88;;;5.20;51.41
62697;BME280;48761;42.680;23.312;2023-03-14T02:33:41;94918.28;;;5.20;51.28
62697;BME280;48761;42.680;23.312;2023-03-14T02:36:11;94919.94;;;5.22;51.22
62697;BME280;48761;42.680;23.312;2023-03-14T02:39:08;94931.34;;;5.23;51.52
62697;BME280;48761;42.680;23.312;2023-03-14T02:41:37;94929.53;;;5.23;51.31
62697;BME280;48761;42.680;23.312;2023-03-14T02:44:03;94921.06;;;5.16;51.25
62697;BME280;48761;42.680;23.312;2023-03-14T02:46:29;94932.56;;;5.15;51.47
62697;BME280;48761;42.680;23.312;2023-03-14T02:48:58;94930.56;;;5.01;51.31
62697;BME280;48761;42.680;23.312;2023-03-14T02:51:26;94903.09;;;4.88;51.29
62697;BME280;48761;42.680;23.312;2023-03-14T02:53:51;94930.28;;;5.08;51.62
62697;BME280;48761;42.680;23.312;2023-03-14T02:56:17;94931.06;;;5.10;51.42
62697;BME280;48761;42.680;23.312;2023-03-14T02:58:43;94929.75;;;5.19;51.58
62697;BME280;48761;42.680;23.312;2023-03-14T03:01:09;94934.38;;;5.13;51.39
62697;BME280;48761;42.680;23.312;2023-03-14T03:03:35;94916.47;;;5.02;51.20
62697;BME280;48761;42.680;23.312;2023-03-14T03:06:01;94931.84;;;5.12;51.39
62697;BME280;48761;42.680;23.312;2023-03-14T03:08:28;94935.38;;;5.11;51.54
62697;BME280;48761;42.680;23.312;2023-03-14T03:10:55;94937.81;;;4.96;51.84
62697;BME280;48761;42.680;23.312;2023-03-14T03:13:21;94929.72;;;4.81;51.46
62697;BME280;48761;42.680;23.312;2023-03-14T03:15:47;94930.84;;;4.76;51.66
62697;BME280;48761;42.680;23.312;2023-03-14T03:18:13;94925.00;;;4.88;51.91
62697;BME280;48761;42.680;23.312;2023-03-14T03:20:39;94925.28;;;4.63;52.32
62697;BME280;48761;42.680;23.312;2023-03-14T03:23:05;94913.25;;;4.17;52.72
62697;BME280;48761;42.680;23.312;2023-03-14T03:25:31;94912.19;;;4.00;53.08
62697;BME280;48761;42.680;23.312;2023-03-14T03:27:57;94929.69;;;4.01;53.10
62697;BME280;48761;42.680;23.312;2023-03-14T03:30:23;94905.69;;;4.09;52.76
62697;BME280;48761;42.680;23.312;2023-03-14T03:32:49;94921.41;;;4.31;52.48
62697;BME280;48761;42.680;23.312;2023-03-14T03:35:15;94905.47;;;4.34;52.23
62697;BME280;48761;42.680;23.312;2023-03-14T03:37:41;94929.88;;;4.38;52.35
62697;BME280;48761;42.680;23.312;2023-03-14T03:40:08;94927.31;;;4.36;52.49
62697;BME280;48761;42.680;23.312;2023-03-14T03:42:35;94919.84;;;4.46;52.21
62697;BME280;48761;42.680;23.312;2023-03-14T03:45:02;94925.00;;;4.50;52.00
62697;BME280;48761;42.680;23.312;2023-03-14T03:47:30;94930.81;;;4.56;52.13
62697;BME280;48761;42.680;23.312;2023-03-14T03:49:56;94925.88;;;4.69;51.71
62697;BME280;48761;42.680;23.312;2023-03-14T03:52:22;94931.00;;;4.73;51.27
62697;BME280;48761;42.680;23.312;2023-03-14T03:54:48;94927.13;;;4.60;51.60
62697;BME280;48761;42.680;23.312;2023-03-14T03:57:14;94923.09;;;4.32;52.05
62697;BME280;48761;42.680;23.312;2023-03-14T03:59:40;94932.72;;;4.53;52.00
62697;BME280;48761;42.680;23.312;2023-03-14T04:02:07;94936.81;;;4.60;51.99
62697;BME280;48761;42.680;23.312;2023-03-14T04:04:33;94929.63;;;4.64;52.17
62697;BME280;48761;42.680;23.312;2023-03-14T04:06:59;94920.94;;;4.62;51.59
62697;BME280;48761;42.680;23.312;2023-03-14T04:09:25;94934.34;;;4.76;51.89
62697;BME280;48761;42.680;23.312;2023-03-14T04:11:50;94937.97;;;4.74;51.38
62697;BME280;48761;42.680;23.312;2023-03-14T04:14:17;94935.19;;;4.77;51.75
62697;BME280;48761;42.680;23.312;2023-03-14T04:16:42;94938.38;;;4.84;51.19
62697;BME280;48761;42.680;23.312;2023-03-14T04:19:08;94923.00;;;4.74;51.46
62697;BME280;48761;42.680;23.312;2023-03-14T04:21:34;94923.56;;;4.81;51.29
62697;BME280;48761;42.680;23.312;2023-03-14T04:24:00;94920.91;;;4.82;51.36
62697;BME280;48761;42.680;23.312;2023-03-14T04:26:26;94914.03;;;4.78;51.50
62697;BME280;48761;42.680;23.312;2023-03-14T04:28:52;94916.66;;;4.78;52.01
62697;BME280;48761;42.680;23.312;2023-03-14T04:31:21;94913.91;;;4.81;51.88
62697;BME280;48761;42.680;23.312;2023-03-14T04:33:47;94869.63;;;4.51;51.92
62697;BME280;48761;42.680;23.312;2023-03-14T04:36:16;94884.06;;;4.62;51.81
62697;BME280;48761;42.680;23.312;2023-03-14T04:38:42;94873.72;;;4.37;52.01
62697;BME280;48761;42.680;23.312;2023-03-14T04:41:08;94897.50;;;4.55;51.96
62697;BME280;48761;42.680;23.312;2023-03-14T04:43:34;94885.41;;;4.51;52.25
62697;BME280;48761;42.680;23.312;2023-03-14T04:46:00;94888.69;;;4.56;52.35
62697;BME280;48761;42.680;23.312;2023-03-14T04:48:26;94892.50;;;4.70;52.62
62697;BME280;48761;42.680;23.312;2023-03-14T04:50:52;94874.88;;;4.70;52.80
62697;BME280;48761;42.680;23.312;2023-03-14T04:53:19;94882.06;;;4.86;52.33
62697;BME280;48761;42.680;23.312;2023-03-14T04:55:49;94868.47;;;4.96;51.91
62697;BME280;48761;42.680;23.312;2023-03-14T04:58:16;94874.31;;;5.02;52.32
62697;BME280;48761;42.680;23.312;2023-03-14T05:00:42;94864.03;;;5.15;52.22
62697;BME280;48761;42.680;23.312;2023-03-14T05:03:08;94877.63;;;5.25;52.16
62697;BME280;48761;42.680;23.312;2023-03-14T05:05:34;94882.00;;;5.07;52.16
62697;BME280;48761;42.680;23.312;2023-03-14T05:08:00;94863.06;;;4.79;51.82
62697;BME280;48761;42.680;23.312;2023-03-14T05:10:25;94884.41;;;4.73;52.64
62697;BME280;48761;42.680;23.312;2023-03-14T05:12:51;94881.72;;;4.94;52.42
62697;BME280;48761;42.680;23.312;2023-03-14T05:15:17;94880.53;;;5.19;52.44
62697;BME280;48761;42.680;23.312;2023-03-14T05:17:43;94874.53;;;5.35;52.49
62697;BME280;48761;42.680;23.312;2023-03-14T05:20:10;94885.97;;;5.71;52.09
62697;BME280;48761;42.680;23.312;2023-03-14T05:22:36;94871.97;;;6.04;50.94
62697;BME280;48761;42.680;23.312;2023-03-14T05:25:01;94863.03;;;6.25;50.29
62697;BME280;48761;42.680;23.312;2023-03-14T05:27:27;94874.00;;;6.51;49.89
62697;BME280;48761;42.680;23.312;2023-03-14T05:29:53;94865.88;;;6.72;48.52
62697;BME280;48761;42.680;23.312;2023-03-14T05:32:19;94830.72;;;6.54;47.72
62697;BME280;48761;42.680;23.312;2023-03-14T05:34:45;94872.34;;;7.15;47.66
62697;BME280;48761;42.680;23.312;2023-03-14T05:37:11;94870.63;;;7.61;46.40
62697;BME280;48761;42.680;23.312;2023-03-14T05:39:37;94881.63;;;7.69;45.98
62697;BME280;48761;42.680;23.312;2023-03-14T05:42:03;94863.94;;;8.01;45.76
62697;BME280;48761;42.680;23.312;2023-03-14T05:44:29;94877.03;;;8.48;44.88
62697;BME280;48761;42.680;23.312;2023-03-14T05:46:55;94875.19;;;8.79;43.76
62697;BME280;48761;42.680;23.312;2023-03-14T05:49:20;94871.38;;;8.54;43.09
62697;BME280;48761;42.680;23.312;2023-03-14T05:51:46;94866.75;;;8.72;42.90
62697;BME280;48761;42.680;23.312;2023-03-14T05:54:12;94862.84;;;8.78;43.05
62697;BME280;48761;42.680;23.312;2023-03-14T05:56:38;94857.75;;;8.90;42.17
62697;BME280;48761;42.680;23.312;2023-03-14T05:59:04;94873.88;;;9.14;41.45
62697;BME280;48761;42.680;23.312;2023-03-14T06:01:30;94863.91;;;9.33;41.34
62697;BME280;48761;42.680;23.312;2023-03-14T06:03:56;94861.38;;;9.44;41.26
62697;BME280;48761;42.680;23.312;2023-03-14T06:06:22;94861.13;;;9.62;40.85
62697;BME280;48761;42.680;23.312;2023-03-14T06:08:48;94868.81;;;9.80;40.20
62697;BME280;48761;42.680;23.312;2023-03-14T06:11:14;94867.91;;;9.66;40.38
62697;BME280;48761;42.680;23.312;2023-03-14T06:13:40;94867.59;;;9.30;40.36
62697;BME280;48761;42.680;23.312;2023-03-14T06:16:06;94870.03;;;9.33;40.53
62697;BME280;48761;42.680;23.312;2023-03-14T06:18:32;94860.19;;;8.34;42.26
62697;BME280;48761;42.680;23.312;2023-03-14T06:20:58;94857.91;;;8.28;42.45
62697;BME280;48761;42.680;23.312;2023-03-14T06:23:24;94872.94;;;8.13;42.67
62697;BME280;48761;42.680;23.312;2023-03-14T06:25:50;94871.44;;;8.38;42.56
62697;BME280;48761;42.680;23.312;2023-03-14T06:28:16;94851.94;;;7.64;43.27
62697;BME280;48761;42.680;23.312;2023-03-14T06:30:42;94876.16;;;7.72;44.14
62697;BME280;48761;42.680;23.312;2023-03-14T06:33:08;94879.53;;;8.66;42.84
62697;BME280;48761;42.680;23.312;2023-03-14T06:35:34;94878.03;;;8.61;41.75
62697;BME280;48761;42.680;23.312;2023-03-14T06:38:00;94860.22;;;8.63;41.78
62697;BME280;48761;42.680;23.312;2023-03-14T06:40:26;94860.66;;;9.00;41.23
62697;BME280;48761;42.680;23.312;2023-03-14T06:42:52;94856.34;;;7.94;42.24
62697;BME280;48761;42.680;23.312;2023-03-14T06:45:18;94855.44;;;7.95;43.04
62697;BME280;48761;42.680;23.312;2023-03-14T06:47:44;94852.25;;;8.78;41.67
62697;BME280;48761;42.680;23.312;2023-03-14T06:50:10;94853.06;;;9.36;40.74
62697;BME280;48761;42.680;23.312;2023-03-14T06:52:36;94838.34;;;9.17;40.18
62697;BME280;48761;42.680;23.312;2023-03-14T06:55:03;94821.03;;;9.11;40.26
62697;BME280;48761;42.680;23.312;2023-03-14T06:57:29;94839.75;;;8.51;41.64
62697;BME280;48761;42.680;23.312;2023-03-14T06:59:54;94839.53;;;8.98;40.95
62697;BME280;48761;42.680;23.312;2023-03-14T07:02:22;94836.72;;;9.70;39.92
62697;BME280;48761;42.680;23.312;2023-03-14T07:04:48;94816.16;;;9.05;39.90
62697;BME280;48761;42.680;23.312;2023-03-14T07:07:14;94831.06;;;8.78;40.31
62697;BME280;48761;42.680;23.312;2023-03-14T07:09:40;94837.00;;;9.24;39.79
62697;BME280;48761;42.680;23.312;2023-03-14T07:12:06;94820.09;;;9.53;39.35
62697;BME280;48761;42.680;23.312;2023-03-14T07:14:32;94800.28;;;9.59;38.56
62697;BME280;48761;42.680;23.312;2023-03-14T07:16:58;94837.63;;;9.15;39.36
62697;BME280;48761;42.680;23.312;2023-03-14T07:19:25;94824.16;;;9.59;39.56
62697;BME280;48761;42.680;23.312;2023-03-14T07:21:51;94833.16;;;10.75;38.03
62697;BME280;48761;42.680;23.312;2023-03-14T07:24:18;94797.97;;;9.67;39.10
62697;BME280;48761;42.680;23.312;2023-03-14T07:26:44;94824.06;;;9.73;39.66
62697;BME280;48761;42.680;23.312;2023-03-14T07:29:10;94836.63;;;9.16;40.46
62697;BME280;48761;42.680;23.312;2023-03-14T07:31:36;94800.31;;;9.85;39.26
62697;BME280;48761;42.680;23.312;2023-03-14T07:34:03;94816.31;;;11.13;37.62
62697;BME280;48761;42.680;23.312;2023-03-14T07:36:29;94801.91;;;11.28;37.42
62697;BME280;48761;42.680;23.312;2023-03-14T07:38:55;94787.69;;;10.15;38.54
62697;BME280;48761;42.680;23.312;2023-03-14T07:41:21;94816.78;;;10.16;39.48
62697;BME280;48761;42.680;23.312;2023-03-14T07:43:47;94792.09;;;9.62;39.67
62697;BME280;48761;42.680;23.312;2023-03-14T07:46:16;94770.53;;;9.13;40.30
62697;BME280;48761;42.680;23.312;2023-03-14T07:48:43;94799.63;;;9.68;40.08
62697;BME280;48761;42.680;23.312;2023-03-14T07:51:10;94790.19;;;9.23;41.11
62697;BME280;48761;42.680;23.312;2023-03-14T07:53:37;94744.41;;;10.52;38.33
62697;BME280;48761;42.680;23.312;2023-03-14T07:56:03;94799.59;;;9.83;39.36
62697;BME280;48761;42.680;23.312;2023-03-14T07:58:29;94804.69;;;10.12;38.89
62697;BME280;48761;42.680;23.312;2023-03-14T08:00:58;94782.84;;;10.72;37.42
62697;BME280;48761;42.680;23.312;2023-03-14T08:03:25;94773.03;;;9.96;38.45
62697;BME280;48761;42.680;23.312;2023-03-14T08:05:51;94765.81;;;9.98;38.79
62697;BME280;48761;42.680;23.312;2023-03-14T08:08:18;94774.28;;;10.29;38.44
62697;BME280;48761;42.680;23.312;2023-03-14T08:10:44;94773.88;;;10.23;37.88
62697;BME280;48761;42.680;23.312;2023-03-14T08:13:10;94776.38;;;10.63;37.82
62697;BME280;48761;42.680;23.312;2023-03-14T08:15:36;94773.31;;;11.80;36.30
62697;BME280;48761;42.680;23.312;2023-03-14T08:18:03;94784.56;;;10.98;36.75
62697;BME280;48761;42.680;23.312;2023-03-14T08:20:29;94790.53;;;10.64;37.55
62697;BME280;48761;42.680;23.312;2023-03-14T08:22:59;94750.59;;;10.26;37.23
62697;BME280;48761;42.680;23.312;2023-03-14T08:25:27;94773.16;;;10.84;36.64
62697;BME280;48761;42.680;23.312;2023-03-14T08:27:56;94788.66;;;11.40;36.34
62697;BME280;48761;42.680;23.312;2023-03-14T08:30:22;94778.06;;;11.63;36.26
62697;BME280;48761;42.680;23.312;2023-03-14T08:32:48;94771.00;;;11.75;34.92
62697;BME280;48761;42.680;23.312;2023-03-14T08:35:18;94761.13;;;11.52;35.55
62697;BME280;48761;42.680;23.312;2023-03-14T08:37:44;94774.09;;;11.32;35.61
62697;BME280;48761;42.680;23.312;2023-03-14T08:40:11;94777.78;;;11.43;35.04
62697;BME280;48761;42.680;23.312;2023-03-14T08:42:38;94773.31;;;11.80;35.09
62697;BME280;48761;42.680;23.312;2023-03-14T08:45:04;94767.25;;;11.89;34.64
62697;BME280;48761;42.680;23.312;2023-03-14T08:47:31;94753.94;;;11.89;34.58
62697;BME280;48761;42.680;23.312;2023-03-14T08:49:57;94732.66;;;11.41;34.51
62697;BME280;48761;42.680;23.312;2023-03-14T08:52:23;94733.09;;;11.71;34.48
62697;BME280;48761;42.680;23.312;2023-03-14T08:54:49;94749.78;;;11.62;35.08
62697;BME280;48761;42.680;23.312;2023-03-14T08:57:15;94749.75;;;11.98;34.33
62697;BME280;48761;42.680;23.312;2023-03-14T08:59:41;94729.25;;;11.75;33.86
62697;BME280;48761;42.680;23.312;2023-03-14T09:02:10;94700.84;;;11.51;33.98
62697;BME280;48761;42.680;23.312;2023-03-14T09:04:37;94725.72;;;11.27;34.78
62697;BME280;48761;42.680;23.312;2023-03-14T09:07:03;94711.28;;;11.54;34.53
62697;BME280;48761;42.680;23.312;2023-03-14T09:09:29;94713.94;;;12.25;33.13
62697;BME280;48761;42.680;23.312;2023-03-14T09:11:56;94686.81;;;11.49;33.30
62697;BME280;48761;42.680;23.312;2023-03-14T09:14:23;94712.06;;;11.80;33.43
62697;BME280;48761;42.680;23.312;2023-03-14T09:16:50;94702.03;;;12.29;33.11
62697;BME280;48761;42.680;23.312;2023-03-14T09:19:16;94688.75;;;12.18;32.89
62697;BME280;48761;42.680;23.312;2023-03-14T09:21:45;94687.75;;;12.19;32.70
62697;BME280;48761;42.680;23.312;2023-03-14T09:24:11;94663.88;;;11.94;32.53
62697;BME280;48761;42.680;23.312;2023-03-14T09:26:38;94645.50;;;12.26;32.35
62697;BME280;48761;42.680;23.312;2023-03-14T09:29:05;94662.69;;;12.33;32.79
62697;BME280;48761;42.680;23.312;2023-03-14T09:31:31;94648.84;;;12.51;32.26
62697;BME280;48761;42.680;23.312;2023-03-14T09:33:57;94670.91;;;12.30;32.32
62697;BME280;48761;42.680;23.312;2023-03-14T09:36:23;94635.53;;;11.93;32.34
62697;BME280;48761;42.680;23.312;2023-03-14T09:38:49;94667.28;;;12.19;32.66
62697;BME280;48761;42.680;23.312;2023-03-14T09:41:18;94662.66;;;11.87;32.96
62697;BME280;48761;42.680;23.312;2023-03-14T09:43:49;94615.47;;;12.01;32.85
62697;BME280;48761;42.680;23.312;2023-03-14T09:46:16;94641.84;;;12.38;32.58
62697;BME280;48761;42.680;23.312;2023-03-14T09:48:43;94633.31;;;12.44;32.34
62697;BME280;48761;42.680;23.312;2023-03-14T09:51:15;94618.03;;;12.58;31.99
62697;BME280;48761;42.680;23.312;2023-03-14T09:53:45;94628.09;;;12.54;31.70
62697;BME280;48761;42.680;23.312;2023-03-14T09:56:40;94629.81;;;12.88;31.65
62697;BME280;48761;42.680;23.312;2023-03-14T09:59:12;94630.59;;;12.68;31.60
62697;BME280;48761;42.680;23.312;2023-03-14T10:01:39;94592.47;;;12.88;31.41
62697;BME280;48761;42.680;23.312;2023-03-14T10:04:10;94577.31;;;12.56;31.02
62697;BME280;48761;42.680;23.312;2023-03-14T10:06:41;94616.09;;;12.93;30.23
62697;BME280;48761;42.680;23.312;2023-03-14T10:09:32;94597.88;;;12.65;30.67
62697;BME280;48761;42.680;23.312;2023-03-14T10:11:57;94612.63;;;12.81;30.43
62697;BME280;48761;42.680;23.312;2023-03-14T10:14:34;94598.13;;;12.62;30.67
62697;BME280;48761;42.680;23.312;2023-03-14T10:17:10;94593.81;;;12.50;30.99
62697;BME280;48761;42.680;23.312;2023-03-14T10:19:38;94578.72;;;12.93;30.65
62697;BME280;48761;42.680;23.312;2023-03-14T10:22:17;94576.16;;;13.25;30.65
62697;BME280;48761;42.680;23.312;2023-03-14T10:24:52;94569.91;;;13.67;30.25
62697;BME280;48761;42.680;23.312;2023-03-14T10:27:30;94514.69;;;13.67;29.71
62697;BME280;48761;42.680;23.312;2023-03-14T10:30:04;94533.19;;;13.38;30.42
62697;BME280;48761;42.680;23.312;2023-03-14T10:32:36;94554.56;;;13.38;30.25
62697;BME280;48761;42.680;23.312;2023-03-14T10:35:23;94549.84;;;13.51;30.37
62697;BME280;48761;42.680;23.312;2023-03-14T10:37:59;94540.66;;;13.65;30.55
62697;BME280;48761;42.680;23.312;2023-03-14T10:41:02;94482.34;;;13.08;31.12
62697;BME280;48761;42.680;23.312;2023-03-14T10:43:43;94481.94;;;13.13;31.25
62697;BME280;48761;42.680;23.312;2023-03-14T10:46:32;94465.13;;;12.91;32.14
62697;BME280;48761;42.680;23.312;2023-03-14T10:49:06;94487.84;;;13.06;32.35
62697;BME280;48761;42.680;23.312;2023-03-14T10:51:32;94465.84;;;12.93;32.71
62697;BME280;48761;42.680;23.312;2023-03-14T10:54:00;94499.75;;;13.33;33.17
62697;BME280;48761;42.680;23.312;2023-03-14T10:56:28;94483.28;;;13.28;33.16
62697;BME280;48761;42.680;23.312;2023-03-14T10:58:58;94489.34;;;13.30;33.56
62697;BME280;48761;42.680;23.312;2023-03-14T11:04:52;94484.78;;;12.89;34.31
62697;BME280;48761;42.680;23.312;2023-03-14T11:07:28;94480.94;;;12.82;34.32
62697;BME280;48761;42.680;23.312;2023-03-14T11:10:00;94446.91;;;12.96;34.19
62697;BME280;48761;42.680;23.312;2023-03-14T11:15:19;94439.38;;;12.80;34.96
62697;BME280;48761;42.680;23.312;2023-03-14T11:21:11;94426.53;;;13.26;34.30
62697;BME280;48761;42.680;23.312;2023-03-14T11:26:51;94405.63;;;13.31;34.59
62697;BME280;48761;42.680;23.312;2023-03-14T11:29:20;94399.28;;;13.64;33.93
62697;BME280;48761;42.680;23.312;2023-03-14T11:31:47;94402.97;;;13.93;33.06
62697;BME280;48761;42.680;23.312;2023-03-14T11:36:51;94370.88;;;13.63;33.49
62697;BME280;48761;42.680;23.312;2023-03-14T11:42:42;94376.94;;;13.85;33.10
62697;BME280;48761;42.680;23.312;2023-03-14T11:45:48;94377.75;;;13.75;33.60
62697;BME280;48761;42.680;23.312;2023-03-14T11:48:35;94348.81;;;13.81;33.60
62697;BME280;48761;42.680;23.312;2023-03-14T11:51:07;94346.00;;;13.92;33.80
62697;BME280;48761;42.680;23.312;2023-03-14T11:53:47;94342.03;;;14.16;33.25
62697;BME280;48761;42.680;23.312;2023-03-14T11:56:22;94357.94;;;14.28;33.08
62697;BME280;48761;42.680;23.312;2023-03-14T11:59:00;94348.94;;;14.09;32.90
62697;BME280;48761;42.680;23.312;2023-03-14T12:02:09;94325.88;;;14.18;32.71
62697;BME280;48761;42.680;23.312;2023-03-14T12:10:21;94313.47;;;14.27;32.28
62697;BME280;48761;42.680;23.312;2023-03-14T12:12:47;94321.91;;;14.32;32.25
62697;BME280;48761;42.680;23.312;2023-03-14T12:15:21;94308.47;;;13.94;32.41
62697;BME280;48761;42.680;23.312;2023-03-14T12:17:57;94280.59;;;14.06;32.74
62697;BME280;48761;42.680;23.312;2023-03-14T12:20:24;94294.94;;;14.15;32.72
62697;BME280;48761;42.680;23.312;2023-03-14T12:23:02;94242.94;;;13.99;32.45
62697;BME280;48761;42.680;23.312;2023-03-14T12:25:33;94274.38;;;14.26;32.36
62697;BME280;48761;42.680;23.312;2023-03-14T12:30:36;94270.31;;;14.11;32.17
62697;BME280;48761;42.680;23.312;2023-03-14T12:40:54;94269.53;;;14.39;31.28
62697;BME280;48761;42.680;23.312;2023-03-14T12:43:33;94263.69;;;14.26;31.91
62697;BME280;48761;42.680;23.312;2023-03-14T12:48:45;94240.81;;;14.41;31.25
62697;BME280;48761;42.680;23.312;2023-03-14T12:51:17;94244.13;;;14.63;31.02
62697;BME280;48761;42.680;23.312;2023-03-14T13:01:58;94194.13;;;14.45;31.12
62697;BME280;48761;42.680;23.312;2023-03-14T13:04:31;94214.84;;;14.62;30.95
62697;BME280;48761;42.680;23.312;2023-03-14T13:07:00;94219.44;;;14.70;31.19
62697;BME280;48761;42.680;23.312;2023-03-14T13:12:10;94186.03;;;14.55;30.88
62697;BME280;48761;42.680;23.312;2023-03-14T13:14:41;94200.69;;;14.79;30.54
62697;BME280;48761;42.680;23.312;2023-03-14T13:17:13;94204.03;;;14.82;30.45
62697;BME280;48761;42.680;23.312;2023-03-14T13:19:40;94195.47;;;14.78;30.92
62697;BME280;48761;42.680;23.312;2023-03-14T13:22:20;94154.81;;;14.46;30.61
62697;BME280;48761;42.680;23.312;2023-03-14T13:24:47;94175.19;;;14.57;30.57
62697;BME280;48761;42.680;23.312;2023-03-14T13:27:18;94174.34;;;14.56;30.65
62697;BME280;48761;42.680;23.312;2023-03-14T13:29:44;94175.69;;;14.71;30.45
62697;BME280;48761;42.680;23.312;2023-03-14T13:32:22;94164.91;;;14.81;29.95
62697;BME280;48761;42.680;23.312;2023-03-14T13:34:51;94158.16;;;14.76;29.89
62697;BME280;48761;42.680;23.312;2023-03-14T13:37:20;94153.91;;;14.84;30.22
62697;BME280;48761;42.680;23.312;2023-03-14T13:39:51;94141.19;;;14.96;30.16
62697;BME280;48761;42.680;23.312;2023-03-14T13:42:18;94149.97;;;14.88;30.39
62697;BME280;48761;42.680;23.312;2023-03-14T13:44:44;94126.06;;;14.86;29.95
62697;BME280;48761;42.680;23.312;2023-03-14T13:47:18;94136.13;;;14.93;29.51
62697;BME280;48761;42.680;23.312;2023-03-14T13:49:45;94123.25;;;14.78;29.56
62697;BME280;48761;42.680;23.312;2023-03-14T13:54:55;94112.44;;;14.98;29.61
62697;BME280;48761;42.680;23.312;2023-03-14T13:57:22;94129.41;;;14.88;29.20